Time;durP1;ratioP1;P1;durP2;ratioP2;P2;SDS_P1;SDS_P2;PMS_P1;PMS_P2;Temp;Humidity;BMP_temperature;BMP_pressure;BME280_temperature;BME280_humidity;BME280_pressure;Samples;Min_cycle;Max_cycle;Signal;HPM_P1;HPM_P2
2021/05/21 00:01:36;;;;;;;2.70;2.47;;;;;;;;;;5029357;28;20477;-71
2021/05/21 00:04:03;;;;;;;2.53;2.33;;;;;;;;;;5015238;28;20441;-71
2021/05/21 00:06:29;;;;;;;2.87;2.17;;;;;;;;;;5016665;28;20444;-72
2021/05/21 00:08:56;;;;;;;2.60;2.40;;;;;;;;;;5020876;28;20436;-73
2021/05/21 00:11:23;;;;;;;2.60;2.40;;;;;;;;;;5012574;28;20453;-73
2021/05/21 00:13:50;;;;;;;2.43;2.23;;;;;;;;;;5030363;28;20431;-71
2021/05/21 00:16:17;;;;;;;2.30;2.10;;;;;;;;;;5029942;28;20946;-72
2021/05/21 00:18:45;;;;;;;2.80;2.60;;;;;;;;;;5028605;28;20833;-72
2021/05/21 00:21:12;;;;;;;2.47;2.27;;;;;;;;;;5017776;28;20440;-71
2021/05/21 00:23:39;;;;;;;2.60;2.40;;;;;;;;;;5009975;28;20528;-70
2021/05/21 00:26:06;;;;;;;2.77;2.57;;;;;;;;;;5021179;28;20482;-72
2021/05/21 00:28:32;;;;;;;2.77;2.50;;;;;;;;;;5026680;28;20531;-72
2021/05/21 00:30:59;;;;;;;3.03;2.83;;;;;;;;;;5019497;28;20531;-73
2021/05/21 00:33:26;;;;;;;2.93;2.70;;;;;;;;;;5030195;28;20448;-73
2021/05/21 00:35:53;;;;;;;3.33;2.87;;;;;;;;;;5021505;28;20439;-71
2021/05/21 00:38:20;;;;;;;3.40;2.70;;;;;;;;;;5009838;28;20962;-70
2021/05/21 00:40:47;;;;;;;4.30;2.97;;;;;;;;;;5029410;28;20824;-72
2021/05/21 00:43:17;;;;;;;2.80;2.60;;;;;;;;;;5030190;28;20487;-72
2021/05/21 00:45:44;;;;;;;3.13;2.83;;;;;;;;;;5016114;28;20491;-72
2021/05/21 00:48:11;;;;;;;3.20;2.90;;;;;;;;;;5030383;28;20447;-70
2021/05/21 00:50:38;;;;;;;2.80;2.60;;;;;;;;;;5017397;28;20872;-70
2021/05/21 00:53:05;;;;;;;3.90;2.93;;;;;;;;;;5020524;28;20508;-71
2021/05/21 00:55:32;;;;;;;3.50;3.20;;;;;;;;;;5043073;28;20471;-71
2021/05/21 00:58:00;;;;;;;3.97;3.30;;;;;;;;;;5028368;28;21210;-71
2021/05/21 01:00:27;;;;;;;3.73;3.43;;;;;;;;;;5028388;28;20830;-72
2021/05/21 01:02:53;;;;;;;3.67;3.37;;;;;;;;;;5027792;28;20476;-72
2021/05/21 01:05:20;;;;;;;3.30;3.00;;;;;;;;;;5021948;28;20456;-73
2021/05/21 01:07:47;;;;;;;3.50;3.20;;;;;;;;;;5023132;28;20431;-73
2021/05/21 01:10:14;;;;;;;3.40;3.10;;;;;;;;;;5029819;28;20443;-74
2021/05/21 01:12:41;;;;;;;3.47;3.17;;;;;;;;;;5029443;28;20459;-73
2021/05/21 01:15:08;;;;;;;3.40;3.10;;;;;;;;;;5028259;28;21054;-73
2021/05/21 01:17:35;;;;;;;3.30;3.00;;;;;;;;;;5013514;28;20459;-75
2021/05/21 01:20:01;;;;;;;4.00;3.10;;;;;;;;;;5027683;28;20532;-74
2021/05/21 01:22:28;;;;;;;3.50;3.20;;;;;;;;;;5022417;28;20486;-74
2021/05/21 01:24:55;;;;;;;4.00;3.60;;;;;;;;;;5033426;28;20440;-72
2021/05/21 01:27:23;;;;;;;3.93;3.53;;;;;;;;;;5031581;28;20447;-73
2021/05/21 01:29:50;;;;;;;3.77;3.47;;;;;;;;;;5033271;28;20478;-72
2021/05/21 01:32:17;;;;;;;3.60;3.30;;;;;;;;;;5019039;28;20444;-72
2021/05/21 01:34:43;;;;;;;3.50;3.20;;;;;;;;;;5033404;28;20896;-73
2021/05/21 01:37:17;;;;;;;3.17;2.97;;;;;;;;;;5018691;28;20479;-73
2021/05/21 01:39:45;;;;;;;3.57;3.27;;;;;;;;;;5033127;28;20450;-71
2021/05/21 01:42:12;;;;;;;3.30;3.00;;;;;;;;;;5029503;28;20483;-72
2021/05/21 01:44:39;;;;;;;3.50;3.20;;;;;;;;;;5013325;28;20977;-73
2021/05/21 01:47:09;;;;;;;3.30;3.00;;;;;;;;;;5028488;28;20432;-72
2021/05/21 01:49:36;;;;;;;4.33;2.93;;;;;;;;;;5033035;28;20454;-71
2021/05/21 01:52:03;;;;;;;3.40;3.10;;;;;;;;;;5032410;28;20961;-70
2021/05/21 01:54:30;;;;;;;3.30;3.00;;;;;;;;;;5012732;28;20472;-72
2021/05/21 01:56:57;;;;;;;3.63;3.10;;;;;;;;;;5025726;28;20436;-70
2021/05/21 01:59:24;;;;;;;3.37;3.07;;;;;;;;;;5032261;28;20538;-70
2021/05/21 02:01:52;;;;;;;3.37;3.10;;;;;;;;;;5031784;28;20447;-72
2021/05/21 02:04:32;;;;;;;3.40;3.10;;;;;;;;;;5032266;28;20815;-71
2021/05/21 02:06:59;;;;;;;3.97;3.00;;;;;;;;;;5032697;28;20444;-72
2021/05/21 02:09:26;;;;;;;4.13;2.80;;;;;;;;;;5031954;28;20446;-72
2021/05/21 02:11:53;;;;;;;2.97;2.57;;;;;;;;;;5017210;28;21032;-73
2021/05/21 02:14:20;;;;;;;3.70;3.20;;;;;;;;;;5032472;28;20478;-72
2021/05/21 02:16:47;;;;;;;3.43;3.13;;;;;;;;;;5032672;28;20440;-72
2021/05/21 02:19:15;;;;;;;3.77;3.00;;;;;;;;;;5032197;28;20470;-73
2021/05/21 02:21:45;;;;;;;3.43;3.13;;;;;;;;;;5031879;28;20432;-72
2021/05/21 02:24:11;;;;;;;4.40;2.77;;;;;;;;;;5032074;28;20447;-72
2021/05/21 02:26:38;;;;;;;3.33;3.03;;;;;;;;;;5031754;28;20440;-71
2021/05/21 02:29:05;;;;;;;3.33;3.00;;;;;;;;;;5031840;28;20459;-74
2021/05/21 02:31:32;;;;;;;2.87;2.57;;;;;;;;;;5019265;28;20769;-73
2021/05/21 02:33:59;;;;;;;3.43;3.10;;;;;;;;;;5031196;28;20440;-75
2021/05/21 02:36:26;;;;;;;2.63;2.43;;;;;;;;;;5032595;28;20505;-74
2021/05/21 02:38:53;;;;;;;2.70;2.50;;;;;;;;;;5030197;28;20447;-74
2021/05/21 02:41:20;;;;;;;3.90;3.00;;;;;;;;;;5032086;28;20444;-73
2021/05/21 02:43:47;;;;;;;2.80;2.60;;;;;;;;;;5031746;28;20562;-74
2021/05/21 02:46:14;;;;;;;3.10;2.80;;;;;;;;;;5032327;28;20450;-73
2021/05/21 02:48:41;;;;;;;2.80;2.60;;;;;;;;;;5016527;28;20446;-74
2021/05/21 02:51:08;;;;;;;3.67;2.80;;;;;;;;;;5019167;28;20502;-72
2021/05/21 02:53:34;;;;;;;2.70;2.50;;;;;;;;;;5030972;28;20476;-72
2021/05/21 02:56:01;;;;;;;2.60;2.40;;;;;;;;;;5012554;28;20444;-72
2021/05/21 02:58:28;;;;;;;2.67;2.47;;;;;;;;;;5022838;28;20823;-75
2021/05/21 03:00:55;;;;;;;3.03;2.40;;;;;;;;;;5030423;28;20432;-73
2021/05/21 03:03:21;;;;;;;2.57;2.10;;;;;;;;;;5030210;28;20578;-68
2021/05/21 03:05:48;;;;;;;2.93;2.47;;;;;;;;;;5020296;28;20444;-69
2021/05/21 03:08:15;;;;;;;2.60;2.40;;;;;;;;;;5022016;28;20794;-67
2021/05/21 03:10:41;;;;;;;2.60;2.40;;;;;;;;;;5028266;28;20451;-67
2021/05/21 03:13:08;;;;;;;2.50;2.30;;;;;;;;;;5023882;28;20889;-67
2021/05/21 03:15:36;;;;;;;2.33;2.13;;;;;;;;;;5031324;28;20453;-67
2021/05/21 03:18:04;;;;;;;3.00;2.17;;;;;;;;;;5030149;28;20448;-67
2021/05/21 03:20:30;;;;;;;2.43;1.90;;;;;;;;;;5026948;28;20429;-69
2021/05/21 03:22:57;;;;;;;2.67;2.00;;;;;;;;;;5023407;28;20491;-68
2021/05/21 03:25:24;;;;;;;2.37;2.17;;;;;;;;;;5027367;28;20797;-67
2021/05/21 03:27:51;;;;;;;2.43;1.97;;;;;;;;;;5019347;28;20449;-68
2021/05/21 03:30:19;;;;;;;2.47;2.27;;;;;;;;;;5025241;28;20436;-66
2021/05/21 03:32:46;;;;;;;5.20;2.27;;;;;;;;;;5023924;28;20441;-66
2021/05/21 03:35:13;;;;;;;2.30;2.10;;;;;;;;;;5022553;28;20446;-66
2021/05/21 03:37:40;;;;;;;3.23;2.60;;;;;;;;;;5028182;28;20440;-65
2021/05/21 03:40:07;;;;;;;3.00;2.50;;;;;;;;;;5019280;28;20958;-68
2021/05/21 03:42:34;;;;;;;3.20;2.90;;;;;;;;;;5023709;28;20978;-65
2021/05/21 03:45:00;;;;;;;3.20;2.90;;;;;;;;;;5023332;28;20893;-66
2021/05/21 03:47:27;;;;;;;3.57;3.27;;;;;;;;;;5016140;28;20884;-67
2021/05/21 03:49:54;;;;;;;4.33;3.17;;;;;;;;;;5022672;28;20448;-68
2021/05/21 03:52:21;;;;;;;3.60;3.30;;;;;;;;;;5026981;28;20450;-66
2021/05/21 03:54:49;;;;;;;3.40;3.10;;;;;;;;;;5029968;28;20482;-65
2021/05/21 03:57:16;;;;;;;4.30;3.50;;;;;;;;;;5029588;28;20451;-67
2021/05/21 03:59:43;;;;;;;4.10;3.40;;;;;;;;;;5030255;28;21035;-68
2021/05/21 04:02:13;;;;;;;4.83;4.40;;;;;;;;;;5029237;28;20481;-67
2021/05/21 04:04:42;;;;;;;4.50;4.10;;;;;;;;;;5027722;28;20450;-68
2021/05/21 04:07:08;;;;;;;4.50;4.10;;;;;;;;;;5008748;28;20442;-68
2021/05/21 04:09:35;;;;;;;4.87;4.47;;;;;;;;;;5010204;28;20808;-68
2021/05/21 04:12:02;;;;;;;4.23;3.83;;;;;;;;;;5010225;28;20466;-66
2021/05/21 04:14:29;;;;;;;5.27;3.97;;;;;;;;;;5009750;28;20486;-65
2021/05/21 04:16:55;;;;;;;4.73;4.23;;;;;;;;;;5015325;28;20999;-67
2021/05/21 04:19:22;;;;;;;5.70;4.40;;;;;;;;;;5017890;28;20989;-71
2021/05/21 04:21:50;;;;;;;5.90;4.97;;;;;;;;;;5024985;28;20441;-70
2021/05/21 04:24:17;;;;;;;5.03;4.53;;;;;;;;;;5020697;28;20471;-71
2021/05/21 04:26:43;;;;;;;5.17;4.40;;;;;;;;;;5015170;28;20431;-71
2021/05/21 04:29:15;;;;;;;5.10;4.60;;;;;;;;;;5009880;28;20815;-70
2021/05/21 04:31:41;;;;;;;4.97;4.57;;;;;;;;;;5024843;28;20440;-72
2021/05/21 04:34:08;;;;;;;7.70;6.93;;;;;;;;;;5010323;28;20488;-73
2021/05/21 04:36:35;;;;;;;103.23;76.90;;;;;;;;;;5010529;28;20441;-73
2021/05/21 04:39:02;;;;;;;68.70;58.77;;;;;;;;;;5014430;28;20945;-73
2021/05/21 04:41:29;;;;;;;6.50;5.57;;;;;;;;;;5017602;28;20451;-72
2021/05/21 04:43:56;;;;;;;4.53;4.13;;;;;;;;;;5010574;28;20580;-74
2021/05/21 04:46:23;;;;;;;5.23;4.73;;;;;;;;;;5010826;28;20447;-72
2021/05/21 04:48:50;;;;;;;5.00;4.53;;;;;;;;;;5025590;28;20454;-73
2021/05/21 04:51:16;;;;;;;5.90;5.20;;;;;;;;;;5022909;28;20458;-72
2021/05/21 04:53:43;;;;;;;5.43;4.93;;;;;;;;;;5033019;28;20586;-73
2021/05/21 04:56:10;;;;;;;5.10;4.60;;;;;;;;;;5020540;28;20432;-70
2021/05/21 04:58:40;;;;;;;53.50;46.20;;;;;;;;;;5032060;28;20502;-75
2021/05/21 05:01:06;;;;;;;226.57;181.40;;;;;;;;;;5033084;28;20435;-74
2021/05/21 05:03:33;;;;;;;7.20;5.77;;;;;;;;;;5033280;28;21372;-73
2021/05/21 05:06:00;;;;;;;5.30;4.50;;;;;;;;;;5029194;28;20448;-71
2021/05/21 05:08:28;;;;;;;4.80;4.30;;;;;;;;;;5027575;28;20450;-72
2021/05/21 05:10:54;;;;;;;5.27;4.77;;;;;;;;;;5027127;28;20436;-74
2021/05/21 05:13:21;;;;;;;4.73;4.27;;;;;;;;;;5029319;28;20435;-75
2021/05/21 05:15:48;;;;;;;4.70;4.30;;;;;;;;;;5030931;28;20820;-75
2021/05/21 05:18:15;;;;;;;4.47;4.07;;;;;;;;;;5018057;28;20458;-75
2021/05/21 05:20:42;;;;;;;3.97;3.63;;;;;;;;;;5029610;28;20444;-73
2021/05/21 05:23:10;;;;;;;4.43;4.00;;;;;;;;;;5032550;28;20562;-74
2021/05/21 05:25:43;;;;;;;4.43;4.03;;;;;;;;;;5026421;28;20437;-75
2021/05/21 05:28:11;;;;;;;4.50;4.07;;;;;;;;;;5028406;28;20483;-75
2021/05/21 05:30:39;;;;;;;5.27;4.17;;;;;;;;;;5021105;28;20976;-74
2021/05/21 05:33:05;;;;;;;4.93;4.10;;;;;;;;;;5033100;28;21033;-75
2021/05/21 05:35:32;;;;;;;4.53;3.50;;;;;;;;;;5031960;28;20448;-75
2021/05/21 05:37:59;;;;;;;3.83;3.50;;;;;;;;;;5033304;28;20791;-74
2021/05/21 05:40:27;;;;;;;3.47;3.17;;;;;;;;;;5029976;28;20448;-74
2021/05/21 05:42:53;;;;;;;3.13;2.87;;;;;;;;;;5023435;28;20489;-74
2021/05/21 05:45:20;;;;;;;3.50;3.20;;;;;;;;;;5029758;28;20484;-75
2021/05/21 05:47:47;;;;;;;3.43;2.40;;;;;;;;;;5031156;28;20815;-74
2021/05/21 05:50:13;;;;;;;2.80;2.57;;;;;;;;;;5031547;28;20483;-73
2021/05/21 05:52:40;;;;;;;5.37;2.90;;;;;;;;;;5026895;28;20437;-75
2021/05/21 05:55:07;;;;;;;2.93;2.40;;;;;;;;;;5026868;28;20436;-75
2021/05/21 05:57:34;;;;;;;2.80;2.60;;;;;;;;;;5032585;28;20444;-74
2021/05/21 06:00:01;;;;;;;3.23;2.30;;;;;;;;;;5021048;28;20443;-74
2021/05/21 06:02:31;;;;;;;2.40;2.20;;;;;;;;;;5029619;28;20452;-74
2021/05/21 06:05:02;;;;;;;2.07;1.97;;;;;;;;;;5025139;28;20476;-73
2021/05/21 06:07:29;;;;;;;2.83;2.20;;;;;;;;;;5024009;28;20446;-73
2021/05/21 06:09:55;;;;;;;3.10;2.00;;;;;;;;;;5029044;28;20538;-74
2021/05/21 06:12:23;;;;;;;4.50;2.37;;;;;;;;;;5012356;28;20436;-74
2021/05/21 06:14:50;;;;;;;2.67;2.37;;;;;;;;;;5028536;28;20467;-73
2021/05/21 06:17:18;;;;;;;2.70;2.30;;;;;;;;;;5024230;28;20442;-74
2021/05/21 06:19:47;;;;;;;6.07;2.37;;;;;;;;;;5026079;28;20442;-74
2021/05/21 06:22:14;;;;;;;3.97;2.70;;;;;;;;;;5019346;28;20439;-75
2021/05/21 06:24:43;;;;;;;3.17;2.37;;;;;;;;;;5032753;28;21008;-73
2021/05/21 06:27:23;;;;;;;4.57;2.73;;;;;;;;;;5031911;28;20487;-74
2021/05/21 06:29:50;;;;;;;4.77;3.10;;;;;;;;;;5018773;28;20440;-75
2021/05/21 06:32:18;;;;;;;2.80;2.43;;;;;;;;;;5032314;28;21003;-74
2021/05/21 06:34:44;;;;;;;5.77;2.60;;;;;;;;;;5020544;28;20539;-74
2021/05/21 06:37:22;;;;;;;6.80;2.60;;;;;;;;;;5017650;28;20440;-74
2021/05/21 06:40:06;;;;;;;3.60;2.17;;;;;;;;;;5032272;28;20525;-72
2021/05/21 06:42:33;;;;;;;5.97;2.50;;;;;;;;;;5031778;28;20431;-74
2021/05/21 06:45:00;;;;;;;3.50;2.03;;;;;;;;;;5019618;28;20921;-74
2021/05/21 06:47:27;;;;;;;2.27;2.07;;;;;;;;;;5030256;28;20436;-75
2021/05/21 06:49:53;;;;;;;6.73;1.97;;;;;;;;;;5032305;28;20447;-74
2021/05/21 06:52:20;;;;;;;3.70;1.80;;;;;;;;;;5031537;28;20506;-76
2021/05/21 06:54:48;;;;;;;13.27;2.27;;;;;;;;;;5031880;28;20464;-75
2021/05/21 06:57:14;;;;;;;4.30;2.53;;;;;;;;;;5031220;28;20479;-75
2021/05/21 06:59:41;;;;;;;7.37;2.33;;;;;;;;;;5024860;28;20961;-74
2021/05/21 07:02:08;;;;;;;3.80;2.47;;;;;;;;;;5040398;28;20487;-74
2021/05/21 07:04:35;;;;;;;5.60;2.40;;;;;;;;;;5030217;28;20483;-74
2021/05/21 07:07:03;;;;;;;4.77;2.20;;;;;;;;;;5050892;28;20438;-75
2021/05/21 07:09:29;;;;;;;4.53;2.10;;;;;;;;;;5017108;28;20449;-74
2021/05/21 07:11:56;;;;;;;3.10;2.07;;;;;;;;;;5017405;28;20448;-76
2021/05/21 07:14:23;;;;;;;4.83;2.30;;;;;;;;;;5018731;28;20469;-74
2021/05/21 07:16:50;;;;;;;2.57;1.90;;;;;;;;;;5029913;28;20539;-75
2021/05/21 07:19:18;;;;;;;9.53;2.10;;;;;;;;;;5031181;28;20439;-75
2021/05/21 07:22:03;;;;;;;3.80;2.40;;;;;;;;;;5017108;28;20894;-74
2021/05/21 07:24:30;;;;;;;4.73;2.20;;;;;;;;;;5030950;28;20480;-75
2021/05/21 07:26:57;;;;;;;5.60;2.27;;;;;;;;;;5026998;28;20539;-74
2021/05/21 07:29:24;;;;;;;3.30;2.00;;;;;;;;;;5011286;28;20443;-72
2021/05/21 07:31:50;;;;;;;2.60;2.20;;;;;;;;;;5025007;28;20476;-73
2021/05/21 07:34:17;;;;;;;2.87;2.20;;;;;;;;;;5019469;28;20446;-74
2021/05/21 07:36:44;;;;;;;4.60;2.67;;;;;;;;;;5030256;28;20448;-73
2021/05/21 07:39:11;;;;;;;5.70;2.80;;;;;;;;;;5017701;28;20448;-75
2021/05/21 07:41:37;;;;;;;4.00;2.83;;;;;;;;;;5018768;28;20451;-74
2021/05/21 07:44:04;;;;;;;3.50;2.70;;;;;;;;;;5029036;28;20514;-76
2021/05/21 07:46:31;;;;;;;4.43;2.80;;;;;;;;;;5029812;28;20804;-74
2021/05/21 07:48:57;;;;;;;5.97;2.83;;;;;;;;;;5030761;28;20480;-75
2021/05/21 07:51:24;;;;;;;9.37;4.27;;;;;;;;;;5030432;28;20954;-73
2021/05/21 07:53:51;;;;;;;2.80;2.47;;;;;;;;;;5016646;28;21085;-74
2021/05/21 07:56:18;;;;;;;3.10;2.40;;;;;;;;;;5030541;28;20435;-73
2021/05/21 07:58:45;;;;;;;2.63;2.43;;;;;;;;;;5030072;28;20475;-74
2021/05/21 08:01:12;;;;;;;2.93;2.40;;;;;;;;;;5016266;28;20886;-73
2021/05/21 08:03:39;;;;;;;3.47;2.77;;;;;;;;;;5028884;28;20628;-74
2021/05/21 08:06:06;;;;;;;4.07;2.87;;;;;;;;;;5013816;28;20873;-73
2021/05/21 08:08:32;;;;;;;5.10;3.77;;;;;;;;;;5030331;28;20476;-73
2021/05/21 08:11:02;;;;;;;3.20;2.90;;;;;;;;;;5030811;28;20435;-74
2021/05/21 08:13:28;;;;;;;4.10;3.27;;;;;;;;;;5024801;28;21038;-74
2021/05/21 08:15:55;;;;;;;4.33;3.30;;;;;;;;;;5021862;28;20439;-73
2021/05/21 08:18:22;;;;;;;3.60;3.30;;;;;;;;;;5026639;28;20437;-74
2021/05/21 08:20:49;;;;;;;4.80;4.03;;;;;;;;;;5019809;28;20448;-74
2021/05/21 08:23:17;;;;;;;4.87;3.50;;;;;;;;;;5028048;28;20436;-75
2021/05/21 08:25:44;;;;;;;5.27;3.60;;;;;;;;;;5018206;28;20886;-74
2021/05/21 08:28:10;;;;;;;3.30;2.77;;;;;;;;;;5029565;28;20439;-75
2021/05/21 08:30:37;;;;;;;9.47;3.80;;;;;;;;;;5010493;28;20448;-72
2021/05/21 08:33:05;;;;;;;3.80;3.40;;;;;;;;;;5041884;28;21061;-72
2021/05/21 08:35:32;;;;;;;4.33;3.83;;;;;;;;;;5028788;28;20467;-73
2021/05/21 08:37:59;;;;;;;4.20;3.57;;;;;;;;;;5019425;28;20447;-72
2021/05/21 08:40:29;;;;;;;9.67;3.80;;;;;;;;;;5026234;28;20904;-74
2021/05/21 08:42:58;;;;;;;6.33;3.60;;;;;;;;;;5030257;28;20450;-73
2021/05/21 08:45:30;;;;;;;7.10;4.23;;;;;;;;;;5030037;28;20515;-75
2021/05/21 08:47:57;;;;;;;7.87;3.73;;;;;;;;;;5031189;28;20447;-74
2021/05/21 08:50:25;;;;;;;6.73;3.80;;;;;;;;;;5031380;28;20514;-76
2021/05/21 08:52:51;;;;;;;5.97;3.37;;;;;;;;;;5062890;28;20544;-76
2021/05/21 08:55:20;;;;;;;7.03;4.00;;;;;;;;;;5017888;28;20436;-75
2021/05/21 08:57:47;;;;;;;6.30;4.30;;;;;;;;;;5029565;28;20442;-73
2021/05/21 09:00:15;;;;;;;4.60;4.00;;;;;;;;;;5030549;28;20451;-73
2021/05/21 09:02:42;;;;;;;5.03;3.90;;;;;;;;;;5029575;28;20436;-73
2021/05/21 09:05:10;;;;;;;7.20;3.87;;;;;;;;;;5055565;28;20912;-73
2021/05/21 09:07:37;;;;;;;6.20;4.03;;;;;;;;;;5022526;28;20964;-74
2021/05/21 09:10:12;;;;;;;9.20;4.40;;;;;;;;;;5029783;28;20432;-73
2021/05/21 09:12:43;;;;;;;6.40;4.00;;;;;;;;;;5029464;28;20443;-73
2021/05/21 09:15:13;;;;;;;6.63;4.23;;;;;;;;;;5030024;28;20475;-75
2021/05/21 09:17:51;;;;;;;6.33;4.47;;;;;;;;;;5018243;28;20449;-73
2021/05/21 09:20:22;;;;;;;7.67;4.80;;;;;;;;;;5028807;28;20459;-74
2021/05/21 09:23:00;;;;;;;7.67;3.97;;;;;;;;;;5029042;28;20929;-74
2021/05/21 09:25:37;;;;;;;5.43;4.43;;;;;;;;;;5010364;28;20480;-74
2021/05/21 09:28:04;;;;;;;9.13;4.47;;;;;;;;;;5009717;28;20443;-79
2021/05/21 09:30:31;;;;;;;4.13;3.50;;;;;;;;;;5029245;28;20827;-74
2021/05/21 09:33:02;;;;;;;5.50;4.47;;;;;;;;;;5029266;28;20455;-73
2021/05/21 09:35:29;;;;;;;7.30;4.23;;;;;;;;;;5016859;28;20440;-74
2021/05/21 09:37:56;;;;;;;8.50;4.47;;;;;;;;;;5032919;28;20432;-73
2021/05/21 09:40:24;;;;;;;4.70;4.20;;;;;;;;;;5030790;28;20498;-73
2021/05/21 09:42:57;;;;;;;5.87;4.60;;;;;;;;;;5021916;28;21199;-72
2021/05/21 09:45:25;;;;;;;6.73;4.97;;;;;;;;;;5033078;28;20490;-73
2021/05/21 09:47:52;;;;;;;6.93;4.20;;;;;;;;;;5033500;28;20436;-73
2021/05/21 09:50:19;;;;;;;5.40;4.10;;;;;;;;;;5033200;28;20451;-72
2021/05/21 09:52:47;;;;;;;8.77;5.00;;;;;;;;;;5032456;28;20987;-74
2021/05/21 09:55:14;;;;;;;6.73;3.67;;;;;;;;;;5033148;28;20451;-75
2021/05/21 09:57:41;;;;;;;6.80;4.33;;;;;;;;;;5032236;28;20427;-75
2021/05/21 10:00:11;;;;;;;5.73;4.90;;;;;;;;;;5033575;28;20830;-74
2021/05/21 10:02:38;;;;;;;6.00;4.50;;;;;;;;;;5019293;28;20519;-73
2021/05/21 10:05:06;;;;;;;5.70;4.50;;;;;;;;;;5033008;28;20491;-72
2021/05/21 10:07:33;;;;;;;9.40;4.87;;;;;;;;;;5032553;28;20432;-73
2021/05/21 10:10:00;;;;;;;7.10;4.80;;;;;;;;;;5032972;28;20598;-75
2021/05/21 10:12:27;;;;;;;6.83;4.77;;;;;;;;;;5032672;28;20551;-74
2021/05/21 10:14:55;;;;;;;5.47;4.40;;;;;;;;;;5032280;28;20806;-74
2021/05/21 10:17:24;;;;;;;6.77;4.37;;;;;;;;;;5023467;28;20476;-73
2021/05/21 10:19:53;;;;;;;6.90;4.47;;;;;;;;;;5027671;28;20520;-71
2021/05/21 10:22:28;;;;;;;6.43;4.37;;;;;;;;;;5032762;28;20452;-73
2021/05/21 10:24:59;;;;;;;7.67;4.33;;;;;;;;;;5031064;28;20859;-73
2021/05/21 10:27:27;;;;;;;5.80;4.10;;;;;;;;;;5020019;28;20448;-73
2021/05/21 10:29:57;;;;;;;4.10;3.70;;;;;;;;;;5032463;28;20941;-73
2021/05/21 10:32:28;;;;;;;7.53;4.57;;;;;;;;;;5030807;28;20560;-74
2021/05/21 10:34:56;;;;;;;5.13;3.73;;;;;;;;;;5032901;28;20964;-70
2021/05/21 10:37:41;;;;;;;5.50;4.33;;;;;;;;;;5025280;28;20451;-74
2021/05/21 10:40:29;;;;;;;4.83;4.20;;;;;;;;;;5028983;28;20502;-72
2021/05/21 10:43:16;;;;;;;5.93;3.93;;;;;;;;;;5031578;28;20439;-75
2021/05/21 10:46:13;;;;;;;5.67;4.60;;;;;;;;;;5010363;28;20483;-77
2021/05/21 10:49:00;;;;;;;6.30;4.10;;;;;;;;;;5029851;28;20457;-73
2021/05/21 10:51:28;;;;;;;4.57;3.63;;;;;;;;;;5031709;28;20476;-74
2021/05/21 10:54:13;;;;;;;7.23;4.40;;;;;;;;;;5016221;28;20479;-73
2021/05/21 10:56:44;;;;;;;4.40;4.00;;;;;;;;;;5021899;28;20476;-73
2021/05/21 10:59:10;;;;;;;4.80;4.30;;;;;;;;;;5028099;28;20439;-72
2021/05/21 11:01:44;;;;;;;4.27;3.87;;;;;;;;;;5030741;28;20444;-73
2021/05/21 11:04:29;;;;;;;4.77;4.20;;;;;;;;;;5026646;28;21016;-74
2021/05/21 11:06:56;;;;;;;4.67;4.20;;;;;;;;;;5018525;28;20443;-74
2021/05/21 11:09:24;;;;;;;4.57;4.10;;;;;;;;;;5030934;28;20440;-71
2021/05/21 11:11:51;;;;;;;5.47;4.33;;;;;;;;;;5025334;28;20445;-74
2021/05/21 11:14:26;;;;;;;4.73;4.33;;;;;;;;;;5021104;28;20526;-74
2021/05/21 11:16:54;;;;;;;6.83;4.83;;;;;;;;;;5030871;28;20435;-73
2021/05/21 11:19:22;;;;;;;6.70;3.50;;;;;;;;;;5031133;28;20997;-73
2021/05/21 11:21:53;;;;;;;5.50;4.00;;;;;;;;;;5030679;28;20539;-74
2021/05/21 11:24:47;;;;;;;5.70;3.60;;;;;;;;;;5020527;28;20532;-72
2021/05/21 11:27:14;;;;;;;4.97;3.47;;;;;;;;;;5015597;28;20535;-72
2021/05/21 11:29:42;;;;;;;4.27;3.70;;;;;;;;;;5030600;28;20526;-73
2021/05/21 11:32:09;;;;;;;3.40;3.10;;;;;;;;;;5030939;28;20443;-72
2021/05/21 11:34:36;;;;;;;4.10;3.70;;;;;;;;;;5031898;28;20539;-73
2021/05/21 11:37:04;;;;;;;6.00;3.53;;;;;;;;;;5030420;28;20475;-75
2021/05/21 11:39:33;;;;;;;8.50;3.30;;;;;;;;;;5030430;28;20976;-76
2021/05/21 11:42:03;;;;;;;6.53;3.30;;;;;;;;;;5030459;28;20435;-72
2021/05/21 11:44:31;;;;;;;4.70;3.43;;;;;;;;;;5030353;28;20566;-73
2021/05/21 11:46:59;;;;;;;5.53;3.80;;;;;;;;;;5030088;28;20443;-75
2021/05/21 11:49:26;;;;;;;6.57;3.77;;;;;;;;;;5030283;28;20531;-73
2021/05/21 11:51:54;;;;;;;6.90;3.57;;;;;;;;;;5029683;28;20451;-74
2021/05/21 11:54:21;;;;;;;6.53;3.47;;;;;;;;;;5029750;28;20468;-74
2021/05/21 11:56:48;;;;;;;5.00;3.57;;;;;;;;;;5030298;28;20440;-75
2021/05/21 11:59:19;;;;;;;7.83;3.70;;;;;;;;;;5027055;28;20456;-72
2021/05/21 12:01:58;;;;;;;4.83;3.67;;;;;;;;;;5020507;28;20436;-72
2021/05/21 12:04:29;;;;;;;4.60;3.60;;;;;;;;;;5029186;28;20444;-75
2021/05/21 12:06:56;;;;;;;3.67;3.17;;;;;;;;;;5017433;28;20450;-73
2021/05/21 12:09:23;;;;;;;5.83;3.77;;;;;;;;;;5029898;28;20526;-73
2021/05/21 12:11:51;;;;;;;3.20;2.90;;;;;;;;;;5016523;28;20436;-73
2021/05/21 12:14:22;;;;;;;4.37;3.17;;;;;;;;;;5018396;28;20451;-75
2021/05/21 12:16:51;;;;;;;4.17;3.00;;;;;;;;;;5028430;28;21197;-74
2021/05/21 12:19:18;;;;;;;2.80;2.60;;;;;;;;;;5018699;28;20440;-71
2021/05/21 12:21:49;;;;;;;3.33;3.03;;;;;;;;;;5026606;28;20953;-75
2021/05/21 12:24:23;;;;;;;3.63;3.00;;;;;;;;;;5020160;28;20995;-72
2021/05/21 12:26:52;;;;;;;3.73;2.70;;;;;;;;;;5026738;28;20510;-73
2021/05/21 12:29:20;;;;;;;7.20;3.23;;;;;;;;;;5029723;28;20440;-74
2021/05/21 12:31:47;;;;;;;3.97;3.07;;;;;;;;;;5028196;28;20455;-74
2021/05/21 12:34:18;;;;;;;4.57;2.70;;;;;;;;;;5029430;28;20898;-73
2021/05/21 12:36:51;;;;;;;3.50;2.50;;;;;;;;;;5029154;28;20443;-73
2021/05/21 12:39:17;;;;;;;4.13;2.53;;;;;;;;;;5029411;28;20452;-74
2021/05/21 12:41:45;;;;;;;2.87;2.57;;;;;;;;;;5029989;28;20785;-74
2021/05/21 12:44:13;;;;;;;4.70;2.63;;;;;;;;;;5029031;28;20482;-74
2021/05/21 12:46:45;;;;;;;3.20;2.93;;;;;;;;;;5030177;28;20475;-73
2021/05/21 12:49:19;;;;;;;4.50;3.23;;;;;;;;;;5024222;28;20508;-73
2021/05/21 12:51:50;;;;;;;2.67;2.43;;;;;;;;;;5009646;28;20448;-72
2021/05/21 12:54:23;;;;;;;4.83;3.00;;;;;;;;;;5014210;28;20465;-73
2021/05/21 12:56:57;;;;;;;3.23;2.90;;;;;;;;;;5029609;28;20923;-73
2021/05/21 12:59:46;;;;;;;3.80;2.90;;;;;;;;;;5029428;28;20439;-74
2021/05/21 13:02:15;;;;;;;3.20;2.73;;;;;;;;;;5028990;28;20450;-74
2021/05/21 13:05:02;;;;;;;5.60;2.97;;;;;;;;;;5012749;28;20846;-74
2021/05/21 13:07:30;;;;;;;4.00;3.10;;;;;;;;;;5009048;28;20452;-74
2021/05/21 13:09:59;;;;;;;3.63;2.60;;;;;;;;;;5011677;28;20446;-73
2021/05/21 13:12:38;;;;;;;6.90;3.20;;;;;;;;;;5013462;28;20531;-73
2021/05/21 13:15:09;;;;;;;2.50;2.30;;;;;;;;;;5031373;28;20447;-73
2021/05/21 13:17:37;;;;;;;4.70;2.53;;;;;;;;;;5033143;28;20438;-71
2021/05/21 13:20:04;;;;;;;4.93;2.97;;;;;;;;;;5028918;28;20449;-73
2021/05/21 13:22:33;;;;;;;6.73;3.23;;;;;;;;;;5021820;28;20432;-71
2021/05/21 13:25:03;;;;;;;4.70;2.50;;;;;;;;;;5018952;28;20471;-71
2021/05/21 13:27:30;;;;;;;6.33;5.27;;;;;;;;;;5033442;28;20466;-72
2021/05/21 13:29:57;;;;;;;173.53;124.03;;;;;;;;;;5032011;28;20478;-71
2021/05/21 13:32:25;;;;;;;4.23;3.00;;;;;;;;;;5032768;28;20448;-74
2021/05/21 13:34:52;;;;;;;6.03;3.23;;;;;;;;;;5032862;28;20475;-71
2021/05/21 13:37:20;;;;;;;8.90;3.10;;;;;;;;;;5032113;28;20559;-79
2021/05/21 13:39:48;;;;;;;2.77;2.13;;;;;;;;;;5033173;28;20436;-72
2021/05/21 13:42:15;;;;;;;3.13;2.57;;;;;;;;;;5029975;28;20450;-68
2021/05/21 13:44:42;;;;;;;2.97;2.63;;;;;;;;;;5022967;28;20571;-68
2021/05/21 13:47:08;;;;;;;4.37;2.87;;;;;;;;;;5018428;28;20524;-67
2021/05/21 13:49:35;;;;;;;5.63;2.70;;;;;;;;;;5016153;28;20447;-68
2021/05/21 13:52:02;;;;;;;3.90;2.67;;;;;;;;;;5018587;28;20440;-72
2021/05/21 13:54:30;;;;;;;4.83;2.20;;;;;;;;;;5032357;28;20985;-69
2021/05/21 13:56:57;;;;;;;5.47;2.40;;;;;;;;;;5032358;28;20436;-70
2021/05/21 13:59:25;;;;;;;7.50;3.47;;;;;;;;;;5031580;28;20447;-71
2021/05/21 14:01:52;;;;;;;5.83;3.03;;;;;;;;;;5032430;28;20436;-71
2021/05/21 14:04:19;;;;;;;4.60;2.40;;;;;;;;;;5032393;28;20447;-72
2021/05/21 14:06:46;;;;;;;3.70;2.30;;;;;;;;;;5026875;28;20484;-75
2021/05/21 14:09:13;;;;;;;6.40;2.13;;;;;;;;;;5024054;28;20296;-74
2021/05/21 14:11:40;;;;;;;3.40;2.50;;;;;;;;;;5031868;28;20436;-72
2021/05/21 14:14:07;;;;;;;14.17;12.67;;;;;;;;;;5032717;28;20446;-74
2021/05/21 14:16:38;;;;;;;9.10;4.63;;;;;;;;;;5029772;28;20458;-74
2021/05/21 14:19:06;;;;;;;5.70;3.17;;;;;;;;;;5021395;28;20201;-74
2021/05/21 14:21:34;;;;;;;6.63;2.73;;;;;;;;;;5031089;28;20556;-72
2021/05/21 14:24:03;;;;;;;5.30;2.77;;;;;;;;;;5031734;28;20448;-74
2021/05/21 14:26:32;;;;;;;4.43;2.70;;;;;;;;;;5017555;28;20577;-75
2021/05/21 14:29:06;;;;;;;4.53;3.23;;;;;;;;;;5018040;28;20506;-72
2021/05/21 14:31:33;;;;;;;6.37;3.10;;;;;;;;;;5031693;28;20446;-73
2021/05/21 14:34:01;;;;;;;5.57;3.10;;;;;;;;;;5030751;28;20977;-73
2021/05/21 14:36:28;;;;;;;3.77;3.20;;;;;;;;;;5019605;28;20455;-71
2021/05/21 14:38:57;;;;;;;3.97;2.90;;;;;;;;;;5029845;28;20546;-73
2021/05/21 14:41:23;;;;;;;3.10;2.90;;;;;;;;;;5031548;28;20495;-70
2021/05/21 14:43:52;;;;;;;3.27;2.97;;;;;;;;;;5030732;28;20972;-73
2021/05/21 14:46:20;;;;;;;7.00;3.33;;;;;;;;;;5031775;28;20482;-71
2021/05/21 14:48:47;;;;;;;6.13;3.00;;;;;;;;;;5031154;28;20439;-71
2021/05/21 14:51:24;;;;;;;4.13;2.60;;;;;;;;;;5031600;28;20772;-69